Flight Track Log - Related Links

Times and Time Zones

All times are in EDT time to prevent confusion due to time zone crossing. See the CES5862 flight status page for this flight to view local times or setup timezone preferences in your user account.

Time Position Orientation Groundspeed Altitude Reporting Facility
EDT Latitude Longitude Course Direction KTS MPH feet Rate Location/Type
Sat 09:42:00 AM 32.0993 103.7723 174° South  Level Estimated
Sat 09:42:49 AM 32.6000 104.3080 174° South 352 405 24,600  Level FlightAware ADS-B
Sat 09:43:00 AM 32.0304 103.7803 174° South  Level Estimated
Sat 09:43:30 AM 32.5360 104.2960 189° South 337 388 24,600  Level FlightAware ADS-B
Sat 09:44:00 AM 31.9615 103.7884 174° South  Level Estimated
Sat 09:44:10 AM 32.4800 104.2630 206° Southwest 337 388 24,600  Level FlightAware ADS-B
Sat 09:44:36 AM 32.4410 104.2560 189° South 341 392 24,600  Level FlightAware ADS-B
Sat 09:45:15 AM 32.3780 104.2600 177° South 339 390 24,600  Level FlightAware ADS-B
Sat 09:45:46 AM 32.3340 104.2390 202° Southwest 321 369 24,600  Level FlightAware ADS-B
Sat 09:46:34 AM 32.2830 104.1810 224° Southwest 319 367 24,600  Level FlightAware ADS-B
Sat 09:47:27 AM 32.2290 104.1170 225° Southwest 319 367 24,600  Level FlightAware ADS-B
Sat 09:48:10 AM 32.1830 104.0640 224° Southwest 317 365 24,600  Level FlightAware ADS-B
Sat 09:48:55 AM 32.1360 104.0120 223° Southwest 313 360 24,600  Level FlightAware ADS-B
Sat 09:49:39 AM 32.0900 103.9590 224° Southwest 311 358 24,600  Level FlightAware ADS-B
Sat 09:50:46 AM 32.0140 103.8830 220° Southwest 326 375 24,600  Level FlightAware ADS-B
Sat 09:51:04 AM 31.9880 103.8770 191° South 339 390 24,600  Level FlightAware ADS-B
Sat 09:52:06 AM 31.8960 103.9220 157° South 352 405 24,600  Level FlightAware ADS-B
Sat 09:52:42 AM 31.8420 103.9550 153° Southeast 351 404 24,600  Level FlightAware ADS-B
Sat 09:53:20 AM 31.7880 103.9880 153° Southeast 353 406 24,600  Level FlightAware ADS-B
Sat 09:54:08 AM 31.7180 104.0310 152° Southeast 353 406 24,600  Level FlightAware ADS-B
Sat 09:54:50 AM 31.6560 104.0690 152° Southeast 356 410 24,600  Level FlightAware ADS-B
Sat 09:55:33 AM 31.5940 104.1060 153° Southeast 358 412 24,600  Level FlightAware ADS-B
Sat 09:56:00 AM 31.5540 104.1310 152° Southeast 360 414 24,600  Level FlightAware ADS-B
Sat 09:56:40 AM 31.4940 104.1680 152° Southeast 361 415 24,600  Level FlightAware ADS-B
Sat 09:57:20 AM 31.4350 104.2030 153° Southeast 361 415 24,600 -907 Level FlightAware ADS-B
Sat 09:58:06 AM 31.3680 104.2450 152° Southeast 360 414 23,300 -1,625 Descending FlightAware ADS-B
Sat 09:58:56 AM 31.2930 104.2890 153° Southeast 355 409 22,000 -1,465 Descending FlightAware ADS-B
Sat 09:59:32 AM 31.2400 104.3220 152° Southeast 346 398 21,200 -1,333 Descending FlightAware ADS-B
Sat 10:00:08 AM 31.1900 104.3520 153° Southeast 336 387 20,400 -1,658 Descending FlightAware ADS-B
Sat 10:00:48 AM 31.1330 104.3670 167° South 327 376 19,100 -1,275 Descending FlightAware ADS-B
Sat 10:01:28 AM 31.0840 104.3210 219° Southwest 355 409 18,700 -293 Descending FlightAware ADS-B
Sat 10:02:10 AM 31.0400 104.2580 231° Southwest 369 425 18,700  Level FlightAware ADS-B
Sat 10:02:46 AM 31.0020 104.2020 232° Southwest 339 390 18,700 -500 Level FlightAware ADS-B
Sat 10:03:22 AM 30.9690 104.1520 232° Southwest 319 367 18,100 -815 Descending FlightAware ADS-B
Sat 10:04:07 AM 30.9300 104.0950 231° Southwest 296 341 17,600 -867 Descending FlightAware ADS-B
Sat 10:04:52 AM 30.8910 104.0390 231° Southwest 284 327 16,800 -1,103 Descending FlightAware ADS-B
Sat 10:05:34 AM 30.8570 103.9890 232° Southwest 278 320 16,000 -1,244 Descending FlightAware ADS-B
Sat 10:06:14 AM 30.8250 103.9420 232° Southwest 275 316 15,100 -1,216 Descending FlightAware ADS-B
Sat 10:06:48 AM 30.7990 103.9050 231° Southwest 270 311 14,500 -1,235 Descending FlightAware ADS-B
Sat 10:07:22 AM 30.7720 103.8660 231° Southwest 271 312 13,700 -1,462 Descending FlightAware ADS-B
Sat 10:08:06 AM 30.7360 103.8140 231° Southwest 276 318 12,600 -1,357 Descending FlightAware ADS-B
Sat 10:08:46 AM 30.7050 103.7690 231° Southwest 274 315 11,800 -1,184 Descending FlightAware ADS-B
Sat 10:09:22 AM 30.6770 103.7280 232° Southwest 270 311 11,100 -1,263 Descending FlightAware ADS-B
Sat 10:10:02 AM 30.6350 103.6980 212° Southwest 270 311 10,200 -1,011 Descending FlightAware ADS-B
Sat 10:10:51 AM 30.5790 103.7190 162° South 254 292 9,600 -700 Descending FlightAware ADS-B
Sat 10:11:02 AM 30.5680 103.7240 159° South 249 287 9,500 -628 Descending FlightAware ADS-B
Sat 10:12:17 AM 30.4900 103.7600 158° South 223 257 8,700 -566 Descending FlightAware ADS-B
Sat 10:12:48 AM 30.4610 103.7720 160° South 209 241 8,500 -700 Descending FlightAware ADS-B
Sat 10:13:17 AM 30.4340 103.7650 193° South 210 242 8,000 -738 Descending FlightAware ADS-B
Sat 10:13:53 AM 30.4020 103.7500 202° Southwest 196 226 7,700 -234 Descending FlightAware ADS-B
Sat 10:14:34 AM 30.3680 103.7340 202° Southwest 187 215 7,700 -329 Level FlightAware ADS-B
Sat 10:15:06 AM 30.3430 103.7220 203° Southwest 189 217 7,300 -870 Descending FlightAware ADS-B
Sat 10:15:43 AM 30.3130 103.7080 202° Southwest 190 219 6,700 -904 Descending FlightAware ADS-B
Sat 10:16:19 AM 30.2830 103.6960 199° South 187 215 6,200 -740 Descending FlightAware ADS-B
Sat 10:16:56 AM 30.2630 103.7200 134° Southeast 173 199 5,800 -312 Descending FlightAware ADS-B
Sat 10:17:36 AM 30.2520 103.7540 111° Southeast 171 197 5,800 -79 Level FlightAware ADS-B
Sat 10:18:12 AM 30.2580 103.7820 76° East 162 186 5,700 -456 Descending FlightAware ADS-B
Sat 10:18:55 AM 30.2820 103.8080 43° Northeast 167 192 5,200 -977 Descending FlightAware ADS-B
Sat 10:19:38 AM 30.3130 103.8240 24° Northeast 174 200 4,300 -1,111 Descending FlightAware ADS-B
Sat 10:20:16 AM 30.3410 103.8370 22° Northeast 169 194 3,700 -493 Descending FlightAware ADS-B
Sat 10:20:51 AM 30.3670 103.8490 22° Northeast 161 185 3,700 87 Level FlightAware ADS-B
Sat 10:21:25 AM 30.3910 103.8600 22° Northeast 162 186 3,800 87 Climbing FlightAware ADS-B
Sat 10:22:00 AM 30.4160 103.8710 21° North 163 188 3,800  Level FlightAware ADS-B
Sat 10:22:45 AM 30.4450 103.8850 23° Northeast 145 167 3,800 -286 Level FlightAware ADS-B
Sat 10:23:24 AM 30.4690 103.8960 22° Northeast 135 155 3,400 -640 Descending FlightAware ADS-B
Sat 10:24:00 AM 30.4900 103.9060 22° Northeast 133 153 3,000 -750 Descending FlightAware ADS-B
Sat 10:24:36 AM 30.5110 103.9160 22° Northeast 134 154 2,500 -750 Descending FlightAware ADS-B
Sat 10:25:28 AM 30.5410 103.9300 22° Northeast 135 155 1,900 -682 Descending FlightAware ADS-B
Sat 10:26:04 AM 30.5630 103.9400 21° North 140 161 1,500 -667 Descending FlightAware ADS-B

Login

Don't have an account? Register now (free) for customized features, flight alerts, and more!